Timewell, Illinois
Current Conditions -  °F | °C
As of 4:54 AM on Friday 28 Nov 2014 (Local Time) from KUIN Reporting Station
Scattered Clouds Scattered Clouds  
Wind Chill:   Ceiling: Unl
Heat Index: 21°   Visibility: 10mi
Dew Point: 16°   Wind: 13mph
Humidity: 81%   Direction: 150°SSE
Pressure: 30.22"   Gusts: NA
Location:  40.01°N, 90.87°W
Report Text: KUIN 281054Z AUTO 15011KT 10SM SCT120 M06/M09 A3022 RMK AO2 SLP244 T10611089
Loading
Personal Weather Stations






























Interactive Weather Map New forecast layout! Learn more

10-Day Weather Forecast

Advertisements
Track Severe Weather on mobile